sensor_id;sensor_type;location;lat;lon;timestamp;pressure;altitude;pressure_sealevel;temperature;humidity
8061;BME280;4073;42.626;25.386;2023-04-10T00:01:18;97343.94;;;8.34;80.78
8061;BME280;4073;42.626;25.386;2023-04-10T00:03:43;97347.31;;;8.25;81.62
8061;BME280;4073;42.626;25.386;2023-04-10T00:06:09;97333.44;;;8.23;81.78
8061;BME280;4073;42.626;25.386;2023-04-10T00:08:34;97338.28;;;8.04;83.12
8061;BME280;4073;42.626;25.386;2023-04-10T00:10:59;97330.75;;;7.96;83.18
8061;BME280;4073;42.626;25.386;2023-04-10T00:13:25;97324.94;;;7.77;84.17
8061;BME280;4073;42.626;25.386;2023-04-10T00:15:51;97331.59;;;7.75;84.43
8061;BME280;4073;42.626;25.386;2023-04-10T00:18:16;97316.94;;;7.72;85.17
8061;BME280;4073;42.626;25.386;2023-04-10T00:20:41;97324.69;;;7.79;84.15
8061;BME280;4073;42.626;25.386;2023-04-10T00:23:07;97316.94;;;7.72;84.33
8061;BME280;4073;42.626;25.386;2023-04-10T00:25:33;97315.22;;;7.88;83.31
8061;BME280;4073;42.626;25.386;2023-04-10T00:27:58;97301.78;;;7.99;82.00
8061;BME280;4073;42.626;25.386;2023-04-10T00:30:24;97302.66;;;8.10;80.27
8061;BME280;4073;42.626;25.386;2023-04-10T00:32:49;97288.00;;;8.07;79.55
8061;BME280;4073;42.626;25.386;2023-04-10T00:35:15;97292.72;;;8.27;75.20
8061;BME280;4073;42.626;25.386;2023-04-10T00:37:41;97285.97;;;8.46;75.37
8061;BME280;4073;42.626;25.386;2023-04-10T00:40:07;97285.47;;;8.54;74.63
8061;BME280;4073;42.626;25.386;2023-04-10T00:42:32;97277.22;;;8.56;74.33
8061;BME280;4073;42.626;25.386;2023-04-10T00:44:59;97276.97;;;8.57;74.68
8061;BME280;4073;42.626;25.386;2023-04-10T00:47:25;97290.09;;;8.64;73.11
8061;BME280;4073;42.626;25.386;2023-04-10T00:49:52;97281.00;;;8.60;74.22
8061;BME280;4073;42.626;25.386;2023-04-10T00:52:17;97281.97;;;8.49;75.41
8061;BME280;4073;42.626;25.386;2023-04-10T00:54:43;97285.16;;;8.46;76.00
8061;BME280;4073;42.626;25.386;2023-04-10T00:57:08;97269.69;;;8.43;75.73
8061;BME280;4073;42.626;25.386;2023-04-10T00:59:35;97287.13;;;8.29;76.21
8061;BME280;4073;42.626;25.386;2023-04-10T01:02:01;97263.72;;;8.31;75.57
8061;BME280;4073;42.626;25.386;2023-04-10T01:04:27;97279.47;;;8.37;75.94
8061;BME280;4073;42.626;25.386;2023-04-10T01:10:05;97279.44;;;8.32;76.52
8061;BME280;4073;42.626;25.386;2023-04-10T01:15:21;97274.41;;;8.36;76.45
8061;BME280;4073;42.626;25.386;2023-04-10T01:20:31;97265.88;;;8.34;76.90
8061;BME280;4073;42.626;25.386;2023-04-10T01:26:01;97274.84;;;8.23;78.99
8061;BME280;4073;42.626;25.386;2023-04-10T01:31:10;97270.16;;;8.08;80.13
8061;BME280;4073;42.626;25.386;2023-04-10T01:33:42;97269.09;;;8.09;79.71
8061;BME280;4073;42.626;25.386;2023-04-10T01:36:12;97274.66;;;8.02;80.72
8061;BME280;4073;42.626;25.386;2023-04-10T01:38:43;97263.91;;;7.92;80.72
8061;BME280;4073;42.626;25.386;2023-04-10T01:41:09;97274.66;;;8.02;80.65
8061;BME280;4073;42.626;25.386;2023-04-10T01:43:35;97257.25;;;7.95;80.81
8061;BME280;4073;42.626;25.386;2023-04-10T01:46:03;97277.16;;;7.87;81.31
8061;BME280;4073;42.626;25.386;2023-04-10T01:48:29;97270.09;;;7.71;82.71
8061;BME280;4073;42.626;25.386;2023-04-10T01:50:55;97273.53;;;7.72;82.62
8061;BME280;4073;42.626;25.386;2023-04-10T01:53:22;97278.84;;;7.72;82.41
8061;BME280;4073;42.626;25.386;2023-04-10T01:55:49;97270.16;;;7.55;82.95
8061;BME280;4073;42.626;25.386;2023-04-10T01:58:14;97284.88;;;7.62;83.17
8061;BME280;4073;42.626;25.386;2023-04-10T02:00:41;97279.78;;;7.56;83.38
8061;BME280;4073;42.626;25.386;2023-04-10T02:03:07;97283.66;;;7.48;84.27
8061;BME280;4073;42.626;25.386;2023-04-10T02:08:11;97278.16;;;7.55;84.21
8061;BME280;4073;42.626;25.386;2023-04-10T02:13:10;97267.81;;;7.58;84.13
8061;BME280;4073;42.626;25.386;2023-04-10T02:15:41;97273.38;;;7.57;84.12
8061;BME280;4073;42.626;25.386;2023-04-10T02:18:09;97270.16;;;7.55;83.72
8061;BME280;4073;42.626;25.386;2023-04-10T02:20:35;97265.22;;;7.42;84.30
8061;BME280;4073;42.626;25.386;2023-04-10T02:23:01;97273.03;;;7.27;85.05
8061;BME280;4073;42.626;25.386;2023-04-10T02:25:33;97267.63;;;7.22;85.68
8061;BME280;4073;42.626;25.386;2023-04-10T02:28:05;97265.06;;;7.27;85.62
8061;BME280;4073;42.626;25.386;2023-04-10T02:30:31;97262.97;;;7.29;85.51
8061;BME280;4073;42.626;25.386;2023-04-10T02:33:00;97256.28;;;7.26;85.83
8061;BME280;4073;42.626;25.386;2023-04-10T02:35:25;97267.84;;;7.15;86.61
8061;BME280;4073;42.626;25.386;2023-04-10T02:37:52;97221.72;;;6.83;87.87
8061;BME280;4073;42.626;25.386;2023-04-10T02:40:18;97253.19;;;7.13;87.61
8061;BME280;4073;42.626;25.386;2023-04-10T02:42:43;97259.56;;;7.12;87.58
8061;BME280;4073;42.626;25.386;2023-04-10T02:45:09;97248.66;;;7.13;89.45
8061;BME280;4073;42.626;25.386;2023-04-10T02:47:34;97250.34;;;7.19;88.84
8061;BME280;4073;42.626;25.386;2023-04-10T02:50:00;97242.94;;;7.21;89.01
8061;BME280;4073;42.626;25.386;2023-04-10T02:52:25;97245.09;;;7.24;88.54
8061;BME280;4073;42.626;25.386;2023-04-10T02:54:51;97245.88;;;7.25;92.09
8061;BME280;4073;42.626;25.386;2023-04-10T02:57:16;97239.78;;;7.24;90.65
8061;BME280;4073;42.626;25.386;2023-04-10T02:59:42;97247.88;;;7.34;91.96
8061;BME280;4073;42.626;25.386;2023-04-10T03:02:09;97242.47;;;7.29;90.38
8061;BME280;4073;42.626;25.386;2023-04-10T03:04:35;97242.47;;;7.29;91.74
8061;BME280;4073;42.626;25.386;2023-04-10T03:07:01;97225.75;;;7.29;92.40
8061;BME280;4073;42.626;25.386;2023-04-10T03:09:26;97208.03;;;7.18;90.44
8061;BME280;4073;42.626;25.386;2023-04-10T03:11:51;97230.97;;;7.24;88.65
8061;BME280;4073;42.626;25.386;2023-04-10T03:14:17;97232.22;;;7.16;89.36
8061;BME280;4073;42.626;25.386;2023-04-10T03:16:42;97237.53;;;7.16;91.16
8061;BME280;4073;42.626;25.386;2023-04-10T03:19:08;97232.72;;;7.13;91.75
8061;BME280;4073;42.626;25.386;2023-04-10T03:21:33;97239.03;;;7.07;91.43
8061;BME280;4073;42.626;25.386;2023-04-10T03:23:59;97243.63;;;7.12;91.52
8061;BME280;4073;42.626;25.386;2023-04-10T03:26:25;97231.06;;;7.07;92.87
8061;BME280;4073;42.626;25.386;2023-04-10T03:28:50;97236.19;;;6.92;91.29
8061;BME280;4073;42.626;25.386;2023-04-10T03:31:16;97225.91;;;7.01;92.95
8061;BME280;4073;42.626;25.386;2023-04-10T03:33:41;97236.75;;;7.16;91.07
8061;BME280;4073;42.626;25.386;2023-04-10T03:36:07;97222.66;;;7.15;92.48
8061;BME280;4073;42.626;25.386;2023-04-10T03:38:33;97233.53;;;7.14;93.54
8061;BME280;4073;42.626;25.386;2023-04-10T03:40:58;97228.28;;;7.19;92.16
8061;BME280;4073;42.626;25.386;2023-04-10T03:43:24;97224.69;;;7.08;91.87
8061;BME280;4073;42.626;25.386;2023-04-10T03:45:49;97240.69;;;7.13;92.32
8061;BME280;4073;42.626;25.386;2023-04-10T03:48:15;97237.25;;;7.13;92.38
8061;BME280;4073;42.626;25.386;2023-04-10T03:50:42;97245.97;;;7.08;92.39
8061;BME280;4073;42.626;25.386;2023-04-10T03:53:07;97239.34;;;7.11;92.31
8061;BME280;4073;42.626;25.386;2023-04-10T03:55:33;97239.09;;;7.12;91.86
8061;BME280;4073;42.626;25.386;2023-04-10T03:57:58;97235.00;;;7.05;91.31
8061;BME280;4073;42.626;25.386;2023-04-10T04:00:25;97232.09;;;7.06;93.12
8061;BME280;4073;42.626;25.386;2023-04-10T04:02:51;97234.38;;;6.98;91.87
8061;BME280;4073;42.626;25.386;2023-04-10T04:05:18;97238.06;;;6.92;92.13
8061;BME280;4073;42.626;25.386;2023-04-10T04:07:44;97237.97;;;6.87;91.98
8061;BME280;4073;42.626;25.386;2023-04-10T04:10:09;97241.59;;;6.81;91.38
8061;BME280;4073;42.626;25.386;2023-04-10T04:12:35;97242.19;;;6.83;90.93
8061;BME280;4073;42.626;25.386;2023-04-10T04:15:00;97239.19;;;6.79;89.65
8061;BME280;4073;42.626;25.386;2023-04-10T04:17:25;97243.22;;;6.82;93.11
8061;BME280;4073;42.626;25.386;2023-04-10T04:19:51;97246.38;;;6.79;90.94
8061;BME280;4073;42.626;25.386;2023-04-10T04:22:17;97240.00;;;6.80;91.04
8061;BME280;4073;42.626;25.386;2023-04-10T04:24:42;97238.78;;;6.87;93.44
8061;BME280;4073;42.626;25.386;2023-04-10T04:27:08;97242.50;;;6.86;92.11
8061;BME280;4073;42.626;25.386;2023-04-10T04:29:33;97244.63;;;6.89;91.62
8061;BME280;4073;42.626;25.386;2023-04-10T04:31:58;97241.31;;;6.99;92.11
8061;BME280;4073;42.626;25.386;2023-04-10T04:34:24;97246.69;;;7.04;91.71
8061;BME280;4073;42.626;25.386;2023-04-10T04:36:49;97242.59;;;7.18;91.53
8061;BME280;4073;42.626;25.386;2023-04-10T04:39:15;97251.56;;;7.33;91.81
8061;BME280;4073;42.626;25.386;2023-04-10T04:41:40;97241.25;;;7.63;90.53
8061;BME280;4073;42.626;25.386;2023-04-10T04:44:06;97225.19;;;7.80;89.03
8061;BME280;4073;42.626;25.386;2023-04-10T04:46:31;97249.81;;;8.24;85.66
8061;BME280;4073;42.626;25.386;2023-04-10T04:48:57;97247.38;;;8.54;85.08
8061;BME280;4073;42.626;25.386;2023-04-10T04:51:22;97233.75;;;8.92;79.15
8061;BME280;4073;42.626;25.386;2023-04-10T04:53:48;97242.22;;;9.45;76.37
8061;BME280;4073;42.626;25.386;2023-04-10T04:56:13;97243.16;;;9.96;76.18
8061;BME280;4073;42.626;25.386;2023-04-10T04:58:39;97240.50;;;10.36;72.91
8061;BME280;4073;42.626;25.386;2023-04-10T05:01:05;97249.03;;;10.63;70.44
8061;BME280;4073;42.626;25.386;2023-04-10T05:03:30;97255.97;;;10.69;68.14
8061;BME280;4073;42.626;25.386;2023-04-10T05:05:56;97254.56;;;11.02;70.31
8061;BME280;4073;42.626;25.386;2023-04-10T05:08:22;97264.09;;;11.33;65.28
8061;BME280;4073;42.626;25.386;2023-04-10T05:10:47;97255.75;;;11.49;64.63
8061;BME280;4073;42.626;25.386;2023-04-10T05:13:13;97260.69;;;11.81;63.99
8061;BME280;4073;42.626;25.386;2023-04-10T05:15:42;97234.28;;;12.03;65.05
8061;BME280;4073;42.626;25.386;2023-04-10T05:18:07;97259.69;;;12.10;61.64
8061;BME280;4073;42.626;25.386;2023-04-10T05:20:36;97265.28;;;12.14;60.55
8061;BME280;4073;42.626;25.386;2023-04-10T05:23:03;97259.13;;;12.13;61.56
8061;BME280;4073;42.626;25.386;2023-04-10T05:25:28;97260.97;;;12.18;61.98
8061;BME280;4073;42.626;25.386;2023-04-10T05:27:55;97266.84;;;12.25;60.65
8061;BME280;4073;42.626;25.386;2023-04-10T05:30:20;97262.84;;;12.51;62.28
8061;BME280;4073;42.626;25.386;2023-04-10T05:32:46;97262.09;;;12.74;62.30
8061;BME280;4073;42.626;25.386;2023-04-10T05:35:11;97262.72;;;12.94;60.78
8061;BME280;4073;42.626;25.386;2023-04-10T05:37:37;97257.56;;;12.98;59.55
8061;BME280;4073;42.626;25.386;2023-04-10T05:40:03;97268.69;;;12.86;57.92
8061;BME280;4073;42.626;25.386;2023-04-10T05:42:28;97267.50;;;12.97;58.72
8061;BME280;4073;42.626;25.386;2023-04-10T05:44:54;97269.03;;;13.09;60.91
8061;BME280;4073;42.626;25.386;2023-04-10T05:47:19;97267.56;;;12.92;56.75
8061;BME280;4073;42.626;25.386;2023-04-10T05:49:45;97264.13;;;13.39;59.89
8061;BME280;4073;42.626;25.386;2023-04-10T05:52:10;97268.16;;;13.79;56.49
8061;BME280;4073;42.626;25.386;2023-04-10T05:54:35;97275.44;;;13.78;56.77
8061;BME280;4073;42.626;25.386;2023-04-10T05:57:01;97264.19;;;13.95;58.73
8061;BME280;4073;42.626;25.386;2023-04-10T05:59:26;97259.03;;;14.35;57.47
8061;BME280;4073;42.626;25.386;2023-04-10T06:01:52;97274.72;;;14.47;55.30
8061;BME280;4073;42.626;25.386;2023-04-10T06:04:17;97265.25;;;14.81;52.09
8061;BME280;4073;42.626;25.386;2023-04-10T06:06:43;97268.41;;;15.02;49.49
8061;BME280;4073;42.626;25.386;2023-04-10T06:09:08;97264.31;;;15.04;52.17
8061;BME280;4073;42.626;25.386;2023-04-10T06:11:34;97259.53;;;15.01;49.32
8061;BME280;4073;42.626;25.386;2023-04-10T06:14:00;97261.47;;;14.82;51.27
8061;BME280;4073;42.626;25.386;2023-04-10T06:16:25;97249.75;;;15.05;52.83
8061;BME280;4073;42.626;25.386;2023-04-10T06:18:51;97266.25;;;15.44;51.50
8061;BME280;4073;42.626;25.386;2023-04-10T06:21:18;97266.53;;;15.70;51.10
8061;BME280;4073;42.626;25.386;2023-04-10T06:23:43;97267.41;;;15.93;47.69
8061;BME280;4073;42.626;25.386;2023-04-10T06:26:09;97265.34;;;15.49;47.70
8061;BME280;4073;42.626;25.386;2023-04-10T06:28:34;97272.53;;;15.40;48.71
8061;BME280;4073;42.626;25.386;2023-04-10T06:31:01;97272.19;;;15.82;49.90
8061;BME280;4073;42.626;25.386;2023-04-10T06:33:29;97267.63;;;15.83;47.53
8061;BME280;4073;42.626;25.386;2023-04-10T06:35:54;97265.56;;;15.52;47.50
8061;BME280;4073;42.626;25.386;2023-04-10T06:38:20;97273.31;;;15.27;50.78
8061;BME280;4073;42.626;25.386;2023-04-10T06:40:45;97275.03;;;15.36;49.91
8061;BME280;4073;42.626;25.386;2023-04-10T06:43:11;97282.97;;;15.28;49.88
8061;BME280;4073;42.626;25.386;2023-04-10T06:45:36;97271.59;;;15.31;49.22
8061;BME280;4073;42.626;25.386;2023-04-10T06:48:03;97273.53;;;15.44;49.09
8061;BME280;4073;42.626;25.386;2023-04-10T06:50:28;97281.69;;;15.12;51.50
8061;BME280;4073;42.626;25.386;2023-04-10T06:52:54;97276.88;;;15.09;49.26
8061;BME280;4073;42.626;25.386;2023-04-10T06:55:20;97275.19;;;15.13;49.29
8061;BME280;4073;42.626;25.386;2023-04-10T06:57:46;97289.88;;;15.34;49.09
8061;BME280;4073;42.626;25.386;2023-04-10T07:00:12;97295.19;;;15.80;48.67
8061;BME280;4073;42.626;25.386;2023-04-10T07:02:37;97285.84;;;15.99;48.08
8061;BME280;4073;42.626;25.386;2023-04-10T07:05:03;97291.19;;;15.36;49.08
8061;BME280;4073;42.626;25.386;2023-04-10T07:07:28;97288.09;;;14.84;48.89
8061;BME280;4073;42.626;25.386;2023-04-10T07:09:54;97280.88;;;14.66;51.56
8061;BME280;4073;42.626;25.386;2023-04-10T07:12:22;97298.44;;;14.45;51.16
8061;BME280;4073;42.626;25.386;2023-04-10T07:14:47;97287.59;;;14.50;52.35
8061;BME280;4073;42.626;25.386;2023-04-10T07:17:13;97287.53;;;14.36;52.46
8061;BME280;4073;42.626;25.386;2023-04-10T07:19:38;97290.94;;;14.42;52.46
8061;BME280;4073;42.626;25.386;2023-04-10T07:22:03;97291.44;;;14.44;52.81
8061;BME280;4073;42.626;25.386;2023-04-10T07:24:30;97294.84;;;14.68;52.49
8061;BME280;4073;42.626;25.386;2023-04-10T07:26:56;97290.91;;;14.92;50.17
8061;BME280;4073;42.626;25.386;2023-04-10T07:29:22;97275.88;;;14.59;52.68
8061;BME280;4073;42.626;25.386;2023-04-10T07:31:48;97300.91;;;14.23;52.24
8061;BME280;4073;42.626;25.386;2023-04-10T07:34:13;97300.13;;;14.22;51.61
8061;BME280;4073;42.626;25.386;2023-04-10T07:36:39;97294.47;;;14.00;52.25
8061;BME280;4073;42.626;25.386;2023-04-10T07:39:04;97292.63;;;13.77;53.85
8061;BME280;4073;42.626;25.386;2023-04-10T07:41:30;97291.00;;;13.81;55.15
8061;BME280;4073;42.626;25.386;2023-04-10T07:43:55;97303.22;;;13.69;53.65
8061;BME280;4073;42.626;25.386;2023-04-10T07:46:21;97287.50;;;13.81;54.20
8061;BME280;4073;42.626;25.386;2023-04-10T07:48:46;97291.00;;;13.81;53.13
8061;BME280;4073;42.626;25.386;2023-04-10T07:51:12;97299.13;;;13.95;53.09
8061;BME280;4073;42.626;25.386;2023-04-10T07:53:38;97287.84;;;13.93;54.45
8061;BME280;4073;42.626;25.386;2023-04-10T07:56:04;97291.00;;;14.00;52.84
8061;BME280;4073;42.626;25.386;2023-04-10T07:58:29;97292.59;;;14.56;51.72
8061;BME280;4073;42.626;25.386;2023-04-10T08:00:56;97295.63;;;15.00;50.63
8061;BME280;4073;42.626;25.386;2023-04-10T08:03:21;97295.19;;;15.52;49.26
8061;BME280;4073;42.626;25.386;2023-04-10T08:05:48;97294.78;;;15.73;48.35
8061;BME280;4073;42.626;25.386;2023-04-10T08:08:14;97294.50;;;15.47;48.39
8061;BME280;4073;42.626;25.386;2023-04-10T08:10:40;97291.06;;;15.28;49.73
8061;BME280;4073;42.626;25.386;2023-04-10T08:13:05;97294.69;;;14.78;49.88
8061;BME280;4073;42.626;25.386;2023-04-10T08:15:31;97281.44;;;14.63;51.28
8061;BME280;4073;42.626;25.386;2023-04-10T08:17:57;97284.69;;;14.46;51.48
8061;BME280;4073;42.626;25.386;2023-04-10T08:20:23;97283.81;;;14.51;50.97
8061;BME280;4073;42.626;25.386;2023-04-10T08:22:48;97287.41;;;14.28;51.55
8061;BME280;4073;42.626;25.386;2023-04-10T08:25:14;97284.53;;;14.19;51.14
8061;BME280;4073;42.626;25.386;2023-04-10T08:27:39;97279.94;;;14.20;51.34
8061;BME280;4073;42.626;25.386;2023-04-10T08:30:06;97291.31;;;14.35;52.30
8061;BME280;4073;42.626;25.386;2023-04-10T08:32:31;97275.63;;;14.74;50.53
8061;BME280;4073;42.626;25.386;2023-04-10T08:34:57;97282.16;;;15.14;49.72
8061;BME280;4073;42.626;25.386;2023-04-10T08:37:22;97271.06;;;15.48;49.24
8061;BME280;4073;42.626;25.386;2023-04-10T08:39:48;97272.59;;;15.89;47.93
8061;BME280;4073;42.626;25.386;2023-04-10T08:42:13;97269.63;;;15.77;47.93
8061;BME280;4073;42.626;25.386;2023-04-10T08:44:39;97269.44;;;15.60;47.64
8061;BME280;4073;42.626;25.386;2023-04-10T08:47:07;97273.41;;;15.76;46.12
8061;BME280;4073;42.626;25.386;2023-04-10T08:49:55;97267.63;;;15.83;45.78
8061;BME280;4073;42.626;25.386;2023-04-10T08:52:23;97254.00;;;15.88;44.58
8061;BME280;4073;42.626;25.386;2023-04-10T08:54:56;97262.94;;;16.10;44.62
8061;BME280;4073;42.626;25.386;2023-04-10T08:57:24;97259.31;;;15.93;45.13
8061;BME280;4073;42.626;25.386;2023-04-10T08:59:51;97258.72;;;15.82;45.90
8061;BME280;4073;42.626;25.386;2023-04-10T09:02:17;97261.41;;;15.82;45.49
8061;BME280;4073;42.626;25.386;2023-04-10T09:04:48;97257.38;;;16.07;45.10
8061;BME280;4073;42.626;25.386;2023-04-10T09:07:15;97248.53;;;16.50;44.42
8061;BME280;4073;42.626;25.386;2023-04-10T09:09:41;97250.41;;;16.94;42.46
8061;BME280;4073;42.626;25.386;2023-04-10T09:12:06;97235.75;;;17.25;40.40
8061;BME280;4073;42.626;25.386;2023-04-10T09:14:33;97237.38;;;17.91;41.61
8061;BME280;4073;42.626;25.386;2023-04-10T09:17:20;97237.91;;;18.36;40.03
8061;BME280;4073;42.626;25.386;2023-04-10T09:19:50;97230.53;;;17.85;39.26
8061;BME280;4073;42.626;25.386;2023-04-10T09:22:33;97232.16;;;18.20;39.87
8061;BME280;4073;42.626;25.386;2023-04-10T09:24:59;97237.56;;;18.03;41.55
8061;BME280;4073;42.626;25.386;2023-04-10T09:27:32;97232.28;;;17.25;42.10
8061;BME280;4073;42.626;25.386;2023-04-10T09:30:03;97231.63;;;17.67;42.37
8061;BME280;4073;42.626;25.386;2023-04-10T09:32:43;97232.81;;;18.17;40.77
8061;BME280;4073;42.626;25.386;2023-04-10T09:35:12;97233.91;;;18.25;38.69
8061;BME280;4073;42.626;25.386;2023-04-10T09:37:39;97233.19;;;17.59;39.85
8061;BME280;4073;42.626;25.386;2023-04-10T09:40:19;97236.06;;;17.24;41.68
8061;BME280;4073;42.626;25.386;2023-04-10T09:42:44;97230.09;;;16.08;41.88
8061;BME280;4073;42.626;25.386;2023-04-10T09:45:10;97231.97;;;15.72;43.25
8061;BME280;4073;42.626;25.386;2023-04-10T09:47:35;97239.91;;;15.41;45.39
8061;BME280;4073;42.626;25.386;2023-04-10T09:50:02;97224.03;;;15.53;45.41
8061;BME280;4073;42.626;25.386;2023-04-10T09:52:34;97223.50;;;15.79;45.93
8061;BME280;4073;42.626;25.386;2023-04-10T09:55:04;97224.56;;;15.78;46.30
8061;BME280;4073;42.626;25.386;2023-04-10T09:57:33;97219.88;;;15.83;46.87
8061;BME280;4073;42.626;25.386;2023-04-10T10:00:01;97224.75;;;15.45;45.82
8061;BME280;4073;42.626;25.386;2023-04-10T10:02:29;97216.94;;;15.57;46.38
8061;BME280;4073;42.626;25.386;2023-04-10T10:04:56;97212.84;;;15.60;47.00
8061;BME280;4073;42.626;25.386;2023-04-10T10:07:24;97218.06;;;15.43;46.22
8061;BME280;4073;42.626;25.386;2023-04-10T10:09:51;97214.75;;;15.32;47.88
8061;BME280;4073;42.626;25.386;2023-04-10T10:12:45;97214.06;;;15.27;48.06
8061;BME280;4073;42.626;25.386;2023-04-10T10:18:02;97199.66;;;14.91;46.52
8061;BME280;4073;42.626;25.386;2023-04-10T10:20:30;97202.84;;;14.79;48.33
8061;BME280;4073;42.626;25.386;2023-04-10T10:22:57;97197.09;;;14.86;48.46
8061;BME280;4073;42.626;25.386;2023-04-10T10:25:24;97190.59;;;14.87;47.71
8061;BME280;4073;42.626;25.386;2023-04-10T10:27:51;97201.06;;;14.88;46.36
8061;BME280;4073;42.626;25.386;2023-04-10T10:30:18;97189.78;;;14.73;45.87
8061;BME280;4073;42.626;25.386;2023-04-10T10:32:45;97192.94;;;14.48;46.88
8061;BME280;4073;42.626;25.386;2023-04-10T10:35:11;97190.75;;;14.50;47.17
8061;BME280;4073;42.626;25.386;2023-04-10T10:37:38;97182.25;;;14.29;48.14
8061;BME280;4073;42.626;25.386;2023-04-10T10:45:18;97178.81;;;14.56;49.12
8061;BME280;4073;42.626;25.386;2023-04-10T10:47:53;97170.66;;;14.74;48.03
8061;BME280;4073;42.626;25.386;2023-04-10T10:50:19;97174.28;;;15.10;48.03
8061;BME280;4073;42.626;25.386;2023-04-10T10:52:50;97158.19;;;15.46;46.80
8061;BME280;4073;42.626;25.386;2023-04-10T11:00:22;97149.03;;;15.20;44.53
8061;BME280;4073;42.626;25.386;2023-04-10T11:05:48;97140.41;;;15.45;44.30
8061;BME280;4073;42.626;25.386;2023-04-10T11:08:15;97136.44;;;15.29;43.51
8061;BME280;4073;42.626;25.386;2023-04-10T11:11:02;97139.13;;;15.42;43.65
8061;BME280;4073;42.626;25.386;2023-04-10T11:15:58;97134.34;;;15.39;43.87
8061;BME280;4073;42.626;25.386;2023-04-10T11:21:18;97126.63;;;15.82;42.66
8061;BME280;4073;42.626;25.386;2023-04-10T11:28:57;97122.06;;;15.33;45.94
8061;BME280;4073;42.626;25.386;2023-04-10T11:31:23;97119.91;;;15.08;47.04
8061;BME280;4073;42.626;25.386;2023-04-10T11:34:09;97115.03;;;14.97;46.81
8061;BME280;4073;42.626;25.386;2023-04-10T11:36:42;97109.47;;;14.80;47.01
8061;BME280;4073;42.626;25.386;2023-04-10T11:39:12;97120.41;;;14.70;47.96
8061;BME280;4073;42.626;25.386;2023-04-10T11:41:42;97125.91;;;14.65;48.77
8061;BME280;4073;42.626;25.386;2023-04-10T11:44:10;97122.31;;;14.56;48.07
8061;BME280;4073;42.626;25.386;2023-04-10T11:46:36;97125.59;;;14.53;49.21
8061;BME280;4073;42.626;25.386;2023-04-10T11:49:03;97127.31;;;14.17;50.68
8061;BME280;4073;42.626;25.386;2023-04-10T11:51:29;97116.47;;;13.90;51.77
8061;BME280;4073;42.626;25.386;2023-04-10T11:54:11;97105.81;;;13.66;52.74
8061;BME280;4073;42.626;25.386;2023-04-10T11:56:39;97114.75;;;13.62;53.36
8061;BME280;4073;42.626;25.386;2023-04-10T11:59:05;97097.13;;;13.56;53.67
8061;BME280;4073;42.626;25.386;2023-04-10T12:01:44;97097.47;;;13.68;53.78
8061;BME280;4073;42.626;25.386;2023-04-10T12:04:13;97096.38;;;13.69;54.09
8061;BME280;4073;42.626;25.386;2023-04-10T12:06:43;97098.94;;;13.92;53.00
8061;BME280;4073;42.626;25.386;2023-04-10T12:09:13;97097.00;;;14.11;53.03
8061;BME280;4073;42.626;25.386;2023-04-10T12:14:37;97091.22;;;14.63;49.46
8061;BME280;4073;42.626;25.386;2023-04-10T12:17:05;97088.03;;;14.88;48.37
8061;BME280;4073;42.626;25.386;2023-04-10T12:19:32;97073.88;;;14.83;48.48
8061;BME280;4073;42.626;25.386;2023-04-10T12:21:59;97089.91;;;15.01;48.34
8061;BME280;4073;42.626;25.386;2023-04-10T12:24:47;97083.09;;;15.17;48.56
8061;BME280;4073;42.626;25.386;2023-04-10T12:27:26;97086.00;;;15.07;48.63
8061;BME280;4073;42.626;25.386;2023-04-10T12:29:54;97079.06;;;14.93;49.00
8061;BME280;4073;42.626;25.386;2023-04-10T12:32:20;97072.69;;;14.89;49.95
8061;BME280;4073;42.626;25.386;2023-04-10T12:34:54;97074.97;;;14.82;49.66
8061;BME280;4073;42.626;25.386;2023-04-10T12:38:07;97074.00;;;14.51;50.19
8061;BME280;4073;42.626;25.386;2023-04-10T12:40:08;97068.09;;;14.49;51.25
8061;BME280;4073;42.626;25.386;2023-04-10T12:42:39;97069.78;;;14.31;53.08
8061;BME280;4073;42.626;25.386;2023-04-10T12:45:06;97066.97;;;14.23;52.33
8061;BME280;4073;42.626;25.386;2023-04-10T12:47:43;97067.94;;;14.13;51.70
8061;BME280;4073;42.626;25.386;2023-04-10T12:50:19;97072.22;;;14.14;52.89
8061;BME280;4073;42.626;25.386;2023-04-10T12:53:06;97068.34;;;14.07;53.38
8061;BME280;4073;42.626;25.386;2023-04-10T12:55:33;97064.72;;;14.11;53.19
8061;BME280;4073;42.626;25.386;2023-04-10T12:58:14;97063.75;;;14.07;53.06
8061;BME280;4073;42.626;25.386;2023-04-10T13:00:41;97063.38;;;14.14;53.76
8061;BME280;4073;42.626;25.386;2023-04-10T13:03:06;97064.44;;;14.13;53.31
8061;BME280;4073;42.626;25.386;2023-04-10T13:05:32;97059.16;;;14.08;50.72
8061;BME280;4073;42.626;25.386;2023-04-10T13:07:57;97066.47;;;13.89;52.40
8061;BME280;4073;42.626;25.386;2023-04-10T13:10:23;97064.13;;;13.69;51.75
8061;BME280;4073;42.626;25.386;2023-04-10T13:12:48;97062.88;;;13.80;52.61
8061;BME280;4073;42.626;25.386;2023-04-10T13:15:14;97056.25;;;13.91;52.91
8061;BME280;4073;42.626;25.386;2023-04-10T13:17:41;97053.56;;;14.04;52.79
8061;BME280;4073;42.626;25.386;2023-04-10T13:20:08;97064.16;;;14.14;52.61
8061;BME280;4073;42.626;25.386;2023-04-10T13:22:33;97059.00;;;14.18;53.57
8061;BME280;4073;42.626;25.386;2023-04-10T13:24:59;97055.97;;;14.06;55.11
8061;BME280;4073;42.626;25.386;2023-04-10T13:27:24;97059.41;;;13.93;55.11
8061;BME280;4073;42.626;25.386;2023-04-10T13:29:50;97056.25;;;13.91;55.75
8061;BME280;4073;42.626;25.386;2023-04-10T13:32:15;97057.75;;;13.97;55.21
8061;BME280;4073;42.626;25.386;2023-04-10T13:34:41;97055.69;;;14.07;54.03
8061;BME280;4073;42.626;25.386;2023-04-10T13:37:07;97048.59;;;14.11;53.48
8061;BME280;4073;42.626;25.386;2023-04-10T13:39:33;97038.66;;;13.98;52.47
8061;BME280;4073;42.626;25.386;2023-04-10T13:41:58;97049.59;;;14.02;52.34
8061;BME280;4073;42.626;25.386;2023-04-10T13:44:26;97046.09;;;13.88;53.13
8061;BME280;4073;42.626;25.386;2023-04-10T13:46:51;97040.31;;;13.94;52.89
8061;BME280;4073;42.626;25.386;2023-04-10T13:49:17;97039.72;;;13.97;53.17
8061;BME280;4073;42.626;25.386;2023-04-10T13:51:44;97045.22;;;13.92;53.21
8061;BME280;4073;42.626;25.386;2023-04-10T13:54:10;97042.59;;;13.87;55.87
8061;BME280;4073;42.626;25.386;2023-04-10T13:56:36;97036.91;;;13.75;58.24
8061;BME280;4073;42.626;25.386;2023-04-10T13:59:01;97040.91;;;13.59;59.63
8061;BME280;4073;42.626;25.386;2023-04-10T14:01:27;97041.31;;;13.53;60.45
8061;BME280;4073;42.626;25.386;2023-04-10T14:03:52;97036.81;;;13.48;60.61